createdAt,value
2022-08-21T00:04:37.776Z,55.34
2022-08-21T00:09:45.576Z,55.87
2022-08-21T00:14:42.450Z,56.29
2022-08-21T00:19:40.738Z,57.46
2022-08-21T00:24:37.426Z,58.34
2022-08-21T00:29:35.043Z,58.96
2022-08-21T00:34:31.924Z,59.75
2022-08-21T00:39:29.323Z,60.33
2022-08-21T00:44:26.265Z,61.51
2022-08-21T00:49:23.096Z,61.21
2022-08-21T00:54:22.922Z,62.23
2022-08-21T00:59:21.814Z,62.71
2022-08-21T01:04:18.949Z,62.59
2022-08-21T01:09:16.058Z,63.54
2022-08-21T01:14:12.961Z,63.51
2022-08-21T01:19:11.363Z,64.96
2022-08-21T01:24:09.647Z,64.16
2022-08-21T01:29:08.015Z,64.24
2022-08-21T01:34:05.069Z,63.49
2022-08-21T01:39:02.596Z,63.59
2022-08-21T01:43:59.993Z,63.26
2022-08-21T01:48:56.752Z,61.13
2022-08-21T01:53:53.456Z,60.39
2022-08-21T01:58:50.114Z,59.61
2022-08-21T02:03:47.672Z,58.63
2022-08-21T02:08:44.723Z,57.86
2022-08-21T02:13:41.497Z,56.35
2022-08-21T02:18:38.577Z,55.48
2022-08-21T02:23:36.027Z,54.88
2022-08-21T02:28:33.011Z,55.14
2022-08-21T02:33:30.183Z,54.91
2022-08-21T02:38:28.397Z,54.35
2022-08-21T02:43:27.363Z,54.16
2022-08-21T02:48:25.902Z,53.37
2022-08-21T02:53:22.859Z,52.91
2022-08-21T02:58:24.192Z,53.91
2022-08-21T03:03:25.035Z,54.31
2022-08-21T03:08:22.871Z,54.09
2022-08-21T03:13:23.255Z,53.96
2022-08-21T03:18:20.375Z,53.89
2022-08-21T03:23:19.620Z,54.79
2022-08-21T03:28:17.356Z,55.01
2022-08-21T03:33:15.554Z,54.88
2022-08-21T03:38:13.539Z,54.88
2022-08-21T03:43:10.976Z,54.69
2022-08-21T03:48:09.501Z,54.51
2022-08-21T03:53:07.078Z,53.87
2022-08-21T03:58:16.315Z,53.69
2022-08-21T04:03:14.560Z,53.25
2022-08-21T04:08:11.368Z,53.22
2022-08-21T04:13:08.695Z,53.36
2022-08-21T04:18:05.871Z,53.27
2022-08-21T04:23:03.664Z,58.11
2022-08-21T04:28:00.560Z,58.95
2022-08-21T04:32:58.483Z,62.33
2022-08-21T04:37:55.490Z,62.77
2022-08-21T04:42:53.653Z,62.19
2022-08-21T04:47:52.543Z,62.16
2022-08-21T04:52:50.153Z,62.30
2022-08-21T04:57:49.315Z,61.15
2022-08-21T05:02:47.951Z,59.55
2022-08-21T05:07:47.152Z,61.36
2022-08-21T05:12:46.869Z,60.77
2022-08-21T05:17:44.288Z,61.13
2022-08-21T05:22:51.115Z,63.54
2022-08-21T05:27:47.973Z,63.77
2022-08-21T05:32:49.088Z,63.60
2022-08-21T05:37:46.452Z,63.06
2022-08-21T05:42:54.782Z,63.09
2022-08-21T05:47:52.011Z,62.56
2022-08-21T05:52:48.821Z,62.43
2022-08-21T05:57:46.199Z,62.49
2022-08-21T06:02:43.154Z,62.43
2022-08-21T06:07:40.099Z,61.44
2022-08-21T06:12:36.863Z,60.29
2022-08-21T06:17:38.961Z,59.00
2022-08-21T06:22:35.774Z,59.78
2022-08-21T06:27:32.926Z,58.59
2022-08-21T06:32:29.788Z,57.22
2022-08-21T06:37:27.976Z,56.01
2022-08-21T06:42:27.966Z,55.79
2022-08-21T06:47:25.532Z,55.26
2022-08-21T06:52:22.307Z,53.92
2022-08-21T06:57:19.728Z,53.81
2022-08-21T07:02:16.470Z,51.99
2022-08-21T07:07:13.489Z,51.22
2022-08-21T07:12:10.387Z,51.48
2022-08-21T07:17:07.992Z,50.44
2022-08-21T07:22:05.284Z,50.66
2022-08-21T07:27:02.196Z,50.62
2022-08-21T07:31:59.084Z,50.45
2022-08-21T07:36:56.532Z,49.63
2022-08-21T07:41:53.472Z,48.83
2022-08-21T07:46:50.469Z,48.18
2022-08-21T07:51:47.420Z,47.69
2022-08-21T07:56:44.958Z,46.58
2022-08-21T08:01:42.074Z,46.57
2022-08-21T08:06:38.966Z,45.89
2022-08-21T08:11:36.395Z,45.45
2022-08-21T08:16:33.850Z,45.28
2022-08-21T08:21:34.029Z,44.81
2022-08-21T08:26:31.693Z,44.61
2022-08-21T08:31:28.707Z,44.46
2022-08-21T08:36:34.010Z,44.67
2022-08-21T08:41:33.366Z,44.26
2022-08-21T08:46:35.205Z,43.50
2022-08-21T08:51:38.416Z,43.76
2022-08-21T08:56:36.239Z,45.42
2022-08-21T09:01:38.158Z,46.21
2022-08-21T09:06:44.660Z,47.23
2022-08-21T09:11:46.051Z,47.61
2022-08-21T09:16:47.853Z,47.50
2022-08-21T09:21:50.801Z,47.53
2022-08-21T09:26:57.981Z,46.17
2022-08-21T09:31:54.863Z,46.00
2022-08-21T09:36:52.577Z,45.19
2022-08-21T09:41:55.992Z,44.11
2022-08-21T09:46:53.267Z,43.43
2022-08-21T09:51:51.874Z,42.92
2022-08-21T09:57:14.323Z,42.86
2022-08-21T10:02:26.705Z,42.99
2022-08-21T10:07:25.428Z,42.33
2022-08-21T10:12:26.606Z,41.74
2022-08-21T10:17:28.580Z,41.80
2022-08-21T10:22:33.728Z,40.58
2022-08-21T10:27:36.295Z,40.70
2022-08-21T10:32:40.154Z,40.49
2022-08-21T10:37:45.886Z,39.85
2022-08-21T10:42:50.112Z,39.21
2022-08-21T10:47:48.979Z,39.21
2022-08-21T10:53:07.094Z,37.79
2022-08-21T10:58:08.960Z,38.30
2022-08-21T11:03:08.926Z,39.58
2022-08-21T11:08:09.652Z,39.15
2022-08-21T11:13:12.525Z,38.75
2022-08-21T11:18:16.209Z,38.54
2022-08-21T11:23:16.684Z,37.46
2022-08-21T11:28:17.920Z,37.84
2022-08-21T11:33:22.969Z,37.54
2022-08-21T11:38:28.666Z,37.19
2022-08-21T11:43:34.959Z,37.26
2022-08-21T11:48:38.102Z,38.66
2022-08-21T11:53:37.572Z,37.59
2022-08-21T11:58:37.969Z,36.72
2022-08-21T12:03:36.407Z,36.74
2022-08-21T12:08:34.195Z,36.70
2022-08-21T12:13:40.160Z,36.54
2022-08-21T12:18:38.716Z,36.33
2022-08-21T12:23:46.464Z,34.88
2022-08-21T12:28:43.293Z,33.02
2022-08-21T12:33:41.618Z,33.15
2022-08-21T12:38:45.520Z,32.34
2022-08-21T12:43:44.441Z,34.21
2022-08-21T12:48:45.116Z,34.80
2022-08-21T12:53:45.100Z,35.67
2022-08-21T12:58:45.649Z,35.42
2022-08-21T13:03:45.293Z,35.50
2022-08-21T13:08:47.111Z,39.26
2022-08-21T13:13:50.129Z,43.46
2022-08-21T13:18:54.136Z,44.35
2022-08-21T13:23:51.416Z,44.73
2022-08-21T13:28:49.008Z,47.56
2022-08-21T13:33:45.969Z,49.26
2022-08-21T13:38:44.850Z,48.81
2022-08-21T13:43:45.858Z,47.85
2022-08-21T13:48:43.250Z,49.11
2022-08-21T13:53:46.959Z,52.72
2022-08-21T13:58:45.751Z,51.85
2022-08-21T14:03:43.841Z,52.24
2022-08-21T14:08:41.424Z,50.94
2022-08-21T14:13:41.242Z,52.96
2022-08-21T14:18:44.354Z,53.16
2022-08-21T14:23:42.102Z,54.77
2022-08-21T14:28:40.993Z,55.80
2022-08-21T14:33:37.935Z,56.09
2022-08-21T14:38:36.301Z,55.73
2022-08-21T14:43:33.096Z,55.39
2022-08-21T14:48:30.843Z,55.67
2022-08-21T14:53:27.703Z,55.63
2022-08-21T14:58:25.430Z,53.87
2022-08-21T15:03:22.732Z,54.02
2022-08-21T15:08:20.305Z,53.91
2022-08-21T15:13:17.276Z,54.01
2022-08-21T15:18:14.273Z,53.76
2022-08-21T15:23:14.833Z,52.84
2022-08-21T15:28:13.293Z,51.00
2022-08-21T15:33:12.360Z,48.51
2022-08-21T15:38:11.439Z,48.09
2022-08-21T15:43:10.761Z,46.80
2022-08-21T15:48:08.231Z,47.12
2022-08-21T15:53:06.528Z,50.24
2022-08-21T15:58:06.065Z,52.04
2022-08-21T16:03:05.432Z,53.93
2022-08-21T16:08:03.069Z,54.20
2022-08-21T16:13:03.725Z,54.47
2022-08-21T16:18:00.407Z,58.63
2022-08-21T16:22:57.954Z,61.35
2022-08-21T16:27:59.288Z,58.55
2022-08-21T16:32:56.911Z,60.37
2022-08-21T16:37:53.755Z,58.25
2022-08-21T16:42:50.557Z,61.09
2022-08-21T16:47:49.326Z,60.71
2022-08-21T16:52:48.534Z,61.95
2022-08-21T16:57:45.489Z,63.52
2022-08-21T17:02:45.165Z,61.16
2022-08-21T17:07:43.107Z,61.06
2022-08-21T17:12:41.327Z,59.77
2022-08-21T17:17:38.220Z,61.20
2022-08-21T17:22:35.096Z,61.82
2022-08-21T17:27:32.683Z,62.65
2022-08-21T17:32:31.155Z,62.88
2022-08-21T17:37:29.403Z,61.76
2022-08-21T17:42:26.849Z,62.66
2022-08-21T17:47:24.532Z,63.23
2022-08-21T17:52:21.403Z,64.12
2022-08-21T17:57:19.421Z,64.48
2022-08-21T18:02:21.153Z,65.64
2022-08-21T18:07:32.409Z,65.88
2022-08-21T18:12:30.606Z,66.87
2022-08-21T18:17:29.831Z,67.72
2022-08-21T18:22:28.669Z,67.92
2022-08-21T18:27:29.469Z,67.75
2022-08-21T18:32:30.860Z,67.51
2022-08-21T18:37:29.597Z,68.18
2022-08-21T18:42:28.672Z,68.18
2022-08-21T18:47:28.677Z,67.87
2022-08-21T18:52:28.382Z,69.88
2022-08-21T18:57:28.480Z,71.74
2022-08-21T19:02:25.209Z,71.67
2022-08-21T19:07:22.193Z,74.49
2022-08-21T19:12:22.647Z,72.80
2022-08-21T19:17:20.696Z,70.13
2022-08-21T19:22:17.479Z,69.96
2022-08-21T19:27:14.741Z,67.87
2022-08-21T19:32:14.245Z,63.90
2022-08-21T19:37:15.754Z,68.02
2022-08-21T19:42:12.855Z,69.20
2022-08-21T19:47:10.629Z,68.93
2022-08-21T19:52:13.894Z,67.21
2022-08-21T19:57:11.977Z,65.18
2022-08-21T20:02:11.743Z,65.10
2022-08-21T20:07:08.416Z,64.76
2022-08-21T20:12:09.868Z,66.25
2022-08-21T20:17:10.477Z,70.12
2022-08-21T20:22:07.787Z,74.27
2022-08-21T20:27:06.297Z,74.58
2022-08-21T20:32:04.380Z,76.89
2022-08-21T20:37:01.904Z,73.22
2022-08-21T20:41:59.854Z,75.64
2022-08-21T20:46:57.741Z,75.54
2022-08-21T20:51:55.510Z,74.34
2022-08-21T20:56:58.084Z,75.57
2022-08-21T21:01:59.620Z,73.67
2022-08-21T21:06:59.047Z,74.62
2022-08-21T21:11:58.931Z,76.19
2022-08-21T21:16:58.154Z,76.45
2022-08-21T21:21:59.099Z,75.58
2022-08-21T21:26:57.900Z,74.09
2022-08-21T21:31:55.375Z,76.22
2022-08-21T21:36:56.272Z,76.33
2022-08-21T21:41:56.733Z,76.59
2022-08-21T21:47:00.866Z,76.22
2022-08-21T21:52:04.797Z,76.54
2022-08-21T21:57:10.782Z,78.19
2022-08-21T22:02:13.562Z,77.28
2022-08-21T22:07:13.930Z,77.88
2022-08-21T22:12:25.665Z,78.29
2022-08-21T22:17:32.585Z,78.47
2022-08-21T22:22:30.688Z,78.44
2022-08-21T22:27:31.021Z,75.67
2022-08-21T22:32:28.945Z,73.49
2022-08-21T22:37:33.247Z,72.04
2022-08-21T22:42:30.762Z,71.21
2022-08-21T22:47:32.503Z,71.51
2022-08-21T22:52:32.303Z,70.32
2022-08-21T22:57:30.675Z,69.63
2022-08-21T23:02:31.627Z,68.45
2022-08-21T23:07:43.055Z,67.82
2022-08-21T23:12:43.833Z,66.87
2022-08-21T23:17:50.101Z,65.39
2022-08-21T23:22:54.657Z,65.68
2022-08-21T23:27:57.292Z,65.22
2022-08-21T23:33:09.038Z,64.72
2022-08-21T23:38:11.894Z,66.31
2022-08-21T23:43:16.385Z,67.29
2022-08-21T23:53:50.279Z,65.46
2022-08-21T23:58:52.999Z,65.38
